sensor_id;sensor_type;location;lat;lon;timestamp;temperature;humidity
43808;DHT22;29438;50.664;10.098;2024-01-27T00:00:17;1.40;89.80
43808;DHT22;29438;50.664;10.098;2024-01-27T00:02:43;1.30;89.80
43808;DHT22;29438;50.664;10.098;2024-01-27T00:05:09;1.30;89.90
43808;DHT22;29438;50.664;10.098;2024-01-27T00:07:34;1.30;89.60
43808;DHT22;29438;50.664;10.098;2024-01-27T00:10:01;1.30;89.20
43808;DHT22;29438;50.664;10.098;2024-01-27T00:12:26;1.20;88.80
43808;DHT22;29438;50.664;10.098;2024-01-27T00:14:52;1.20;88.70
43808;DHT22;29438;50.664;10.098;2024-01-27T00:17:17;1.20;89.00
43808;DHT22;29438;50.664;10.098;2024-01-27T00:19:45;1.20;89.00
43808;DHT22;29438;50.664;10.098;2024-01-27T00:22:10;1.20;88.90
43808;DHT22;29438;50.664;10.098;2024-01-27T00:24:36;1.30;88.80
43808;DHT22;29438;50.664;10.098;2024-01-27T00:27:01;1.30;88.50
43808;DHT22;29438;50.664;10.098;2024-01-27T00:29:27;1.30;88.60
43808;DHT22;29438;50.664;10.098;2024-01-27T00:31:52;1.30;88.60
43808;DHT22;29438;50.664;10.098;2024-01-27T00:34:20;1.30;88.70
43808;DHT22;29438;50.664;10.098;2024-01-27T00:36:45;1.40;88.70
43808;DHT22;29438;50.664;10.098;2024-01-27T00:39:15;1.40;88.30
43808;DHT22;29438;50.664;10.098;2024-01-27T00:41:40;1.40;88.20
43808;DHT22;29438;50.664;10.098;2024-01-27T00:44:06;1.50;88.20
43808;DHT22;29438;50.664;10.098;2024-01-27T00:46:32;1.40;88.00
43808;DHT22;29438;50.664;10.098;2024-01-27T00:48:57;1.30;88.20
43808;DHT22;29438;50.664;10.098;2024-01-27T00:51:23;1.40;88.50
43808;DHT22;29438;50.664;10.098;2024-01-27T00:53:48;1.40;88.70
43808;DHT22;29438;50.664;10.098;2024-01-27T00:56:14;1.30;88.80
43808;DHT22;29438;50.664;10.098;2024-01-27T00:58:39;1.30;89.30
43808;DHT22;29438;50.664;10.098;2024-01-27T01:01:05;1.40;89.70
43808;DHT22;29438;50.664;10.098;2024-01-27T01:03:31;1.50;89.70
43808;DHT22;29438;50.664;10.098;2024-01-27T01:05:56;1.60;89.50
43808;DHT22;29438;50.664;10.098;2024-01-27T01:08:22;1.50;89.30
43808;DHT22;29438;50.664;10.098;2024-01-27T01:10:48;1.50;89.50
43808;DHT22;29438;50.664;10.098;2024-01-27T01:13:13;1.50;89.40
43808;DHT22;29438;50.664;10.098;2024-01-27T01:15:39;1.40;89.30
43808;DHT22;29438;50.664;10.098;2024-01-27T01:18:05;1.30;89.30
43808;DHT22;29438;50.664;10.098;2024-01-27T01:20:30;1.20;89.50
43808;DHT22;29438;50.664;10.098;2024-01-27T01:22:58;1.00;89.80
43808;DHT22;29438;50.664;10.098;2024-01-27T01:25:23;1.00;89.70
43808;DHT22;29438;50.664;10.098;2024-01-27T01:27:49;1.00;89.90
43808;DHT22;29438;50.664;10.098;2024-01-27T01:30:16;0.90;89.60
43808;DHT22;29438;50.664;10.098;2024-01-27T01:32:42;0.90;89.60
43808;DHT22;29438;50.664;10.098;2024-01-27T01:35:08;0.80;89.90
43808;DHT22;29438;50.664;10.098;2024-01-27T01:37:35;0.90;89.80
43808;DHT22;29438;50.664;10.098;2024-01-27T01:40:00;0.90;89.60
43808;DHT22;29438;50.664;10.098;2024-01-27T01:42:26;0.90;89.10
43808;DHT22;29438;50.664;10.098;2024-01-27T01:44:52;0.90;89.00
43808;DHT22;29438;50.664;10.098;2024-01-27T01:47:17;0.90;88.90
43808;DHT22;29438;50.664;10.098;2024-01-27T01:49:43;0.80;89.00
43808;DHT22;29438;50.664;10.098;2024-01-27T01:52:09;0.70;89.00
43808;DHT22;29438;50.664;10.098;2024-01-27T01:54:35;0.60;89.20
43808;DHT22;29438;50.664;10.098;2024-01-27T01:57:02;0.80;88.70
43808;DHT22;29438;50.664;10.098;2024-01-27T01:59:28;0.80;88.30
43808;DHT22;29438;50.664;10.098;2024-01-27T02:01:54;0.80;88.20
43808;DHT22;29438;50.664;10.098;2024-01-27T02:04:19;0.90;88.00
43808;DHT22;29438;50.664;10.098;2024-01-27T02:06:45;0.90;87.50
43808;DHT22;29438;50.664;10.098;2024-01-27T02:09:10;0.70;87.70
43808;DHT22;29438;50.664;10.098;2024-01-27T02:11:36;0.70;87.90
43808;DHT22;29438;50.664;10.098;2024-01-27T02:14:02;0.70;88.00
43808;DHT22;29438;50.664;10.098;2024-01-27T02:16:27;0.60;88.20
43808;DHT22;29438;50.664;10.098;2024-01-27T02:18:53;0.60;88.30
43808;DHT22;29438;50.664;10.098;2024-01-27T02:21:18;0.50;88.40
43808;DHT22;29438;50.664;10.098;2024-01-27T02:23:44;0.60;88.80
43808;DHT22;29438;50.664;10.098;2024-01-27T02:26:09;0.60;88.80
43808;DHT22;29438;50.664;10.098;2024-01-27T02:28:35;0.60;89.00
43808;DHT22;29438;50.664;10.098;2024-01-27T02:31:01;0.50;88.90
43808;DHT22;29438;50.664;10.098;2024-01-27T02:33:26;0.50;89.10
43808;DHT22;29438;50.664;10.098;2024-01-27T02:35:52;0.50;89.10
43808;DHT22;29438;50.664;10.098;2024-01-27T02:38:17;0.50;89.20
43808;DHT22;29438;50.664;10.098;2024-01-27T02:40:43;0.50;89.10
43808;DHT22;29438;50.664;10.098;2024-01-27T02:43:08;0.40;89.40
43808;DHT22;29438;50.664;10.098;2024-01-27T02:45:34;0.40;89.60
43808;DHT22;29438;50.664;10.098;2024-01-27T02:47:59;0.30;89.90
43808;DHT22;29438;50.664;10.098;2024-01-27T02:50:25;0.30;90.10
43808;DHT22;29438;50.664;10.098;2024-01-27T02:52:50;0.30;90.30
43808;DHT22;29438;50.664;10.098;2024-01-27T02:55:16;0.40;90.30
43808;DHT22;29438;50.664;10.098;2024-01-27T02:57:41;0.40;90.40
43808;DHT22;29438;50.664;10.098;2024-01-27T03:00:07;0.20;90.20
43808;DHT22;29438;50.664;10.098;2024-01-27T03:02:33;0.20;90.50
43808;DHT22;29438;50.664;10.098;2024-01-27T03:04:58;0.30;90.80
43808;DHT22;29438;50.664;10.098;2024-01-27T03:07:24;0.20;90.80
43808;DHT22;29438;50.664;10.098;2024-01-27T03:09:49;0.20;90.80
43808;DHT22;29438;50.664;10.098;2024-01-27T03:12:15;0.20;90.80
43808;DHT22;29438;50.664;10.098;2024-01-27T03:14:41;0.30;91.00
43808;DHT22;29438;50.664;10.098;2024-01-27T03:17:07;0.30;91.00
43808;DHT22;29438;50.664;10.098;2024-01-27T03:19:33;0.30;91.00
43808;DHT22;29438;50.664;10.098;2024-01-27T03:21:58;0.20;90.90
43808;DHT22;29438;50.664;10.098;2024-01-27T03:24:24;0.20;91.00
43808;DHT22;29438;50.664;10.098;2024-01-27T03:26:49;0.20;91.00
43808;DHT22;29438;50.664;10.098;2024-01-27T03:29:15;0.20;91.00
43808;DHT22;29438;50.664;10.098;2024-01-27T03:31:40;0.20;91.10
43808;DHT22;29438;50.664;10.098;2024-01-27T03:34:06;0.30;91.20
43808;DHT22;29438;50.664;10.098;2024-01-27T03:36:31;0.40;90.80
43808;DHT22;29438;50.664;10.098;2024-01-27T03:38:58;0.40;90.70
43808;DHT22;29438;50.664;10.098;2024-01-27T03:41:24;0.30;90.70
43808;DHT22;29438;50.664;10.098;2024-01-27T03:43:50;0.30;90.70
43808;DHT22;29438;50.664;10.098;2024-01-27T03:46:15;0.30;91.10
43808;DHT22;29438;50.664;10.098;2024-01-27T03:48:41;0.30;90.90
43808;DHT22;29438;50.664;10.098;2024-01-27T03:51:07;0.20;91.10
43808;DHT22;29438;50.664;10.098;2024-01-27T03:53:33;0.20;90.90
43808;DHT22;29438;50.664;10.098;2024-01-27T03:55:58;0.10;91.20
43808;DHT22;29438;50.664;10.098;2024-01-27T03:58:25;0.10;91.10
43808;DHT22;29438;50.664;10.098;2024-01-27T04:00:51;0.00;91.20
43808;DHT22;29438;50.664;10.098;2024-01-27T04:03:17;0.00;91.50
43808;DHT22;29438;50.664;10.098;2024-01-27T04:05:42;0.00;91.30
43808;DHT22;29438;50.664;10.098;2024-01-27T04:08:08;0.00;91.50
43808;DHT22;29438;50.664;10.098;2024-01-27T04:10:33;0.00;91.50
43808;DHT22;29438;50.664;10.098;2024-01-27T04:12:59;-3276.70;91.60
43808;DHT22;29438;50.664;10.098;2024-01-27T04:15:25;0.00;91.90
43808;DHT22;29438;50.664;10.098;2024-01-27T04:17:50;-3276.70;91.50
43808;DHT22;29438;50.664;10.098;2024-01-27T04:20:16;-3276.50;91.30
43808;DHT22;29438;50.664;10.098;2024-01-27T04:22:41;-3276.40;91.60
43808;DHT22;29438;50.664;10.098;2024-01-27T04:25:07;-3276.60;92.00
43808;DHT22;29438;50.664;10.098;2024-01-27T04:27:40;-3276.60;91.90
43808;DHT22;29438;50.664;10.098;2024-01-27T04:30:08;0.00;92.00
43808;DHT22;29438;50.664;10.098;2024-01-27T04:32:34;-3276.60;91.70
43808;DHT22;29438;50.664;10.098;2024-01-27T04:35:00;-3276.30;91.70
43808;DHT22;29438;50.664;10.098;2024-01-27T04:37:26;-3276.20;91.80
43808;DHT22;29438;50.664;10.098;2024-01-27T04:39:51;-3276.10;92.00
43808;DHT22;29438;50.664;10.098;2024-01-27T04:42:17;-3276.00;92.00
43808;DHT22;29438;50.664;10.098;2024-01-27T04:44:42;-3275.90;92.10
43808;DHT22;29438;50.664;10.098;2024-01-27T04:47:08;-3275.80;92.10
43808;DHT22;29438;50.664;10.098;2024-01-27T04:49:33;-3275.70;92.40
43808;DHT22;29438;50.664;10.098;2024-01-27T04:51:59;-3275.90;92.70
43808;DHT22;29438;50.664;10.098;2024-01-27T04:54:25;-3276.00;92.80
43808;DHT22;29438;50.664;10.098;2024-01-27T04:56:50;-3275.90;92.60
43808;DHT22;29438;50.664;10.098;2024-01-27T04:59:16;-3275.60;92.50
43808;DHT22;29438;50.664;10.098;2024-01-27T05:01:44;-3275.60;92.70
43808;DHT22;29438;50.664;10.098;2024-01-27T05:04:11;-3275.60;92.90
43808;DHT22;29438;50.664;10.098;2024-01-27T05:06:36;-3275.70;93.00
43808;DHT22;29438;50.664;10.098;2024-01-27T05:09:04;-3275.80;93.10
43808;DHT22;29438;50.664;10.098;2024-01-27T05:11:32;-3275.70;93.00
43808;DHT22;29438;50.664;10.098;2024-01-27T05:13:58;-3275.60;93.10
43808;DHT22;29438;50.664;10.098;2024-01-27T05:16:24;-3275.50;93.00
43808;DHT22;29438;50.664;10.098;2024-01-27T05:18:49;-3275.50;93.00
43808;DHT22;29438;50.664;10.098;2024-01-27T05:21:15;-3275.50;93.30
43808;DHT22;29438;50.664;10.098;2024-01-27T05:23:40;-3275.50;93.30
43808;DHT22;29438;50.664;10.098;2024-01-27T05:26:06;-3275.50;93.40
43808;DHT22;29438;50.664;10.098;2024-01-27T05:28:32;-3275.30;93.30
43808;DHT22;29438;50.664;10.098;2024-01-27T05:30:58;-3275.30;93.60
43808;DHT22;29438;50.664;10.098;2024-01-27T05:33:24;-3275.40;93.90
43808;DHT22;29438;50.664;10.098;2024-01-27T05:35:49;-3275.60;94.00
43808;DHT22;29438;50.664;10.098;2024-01-27T05:38:15;-3275.80;94.10
43808;DHT22;29438;50.664;10.098;2024-01-27T05:40:41;-3275.60;93.70
43808;DHT22;29438;50.664;10.098;2024-01-27T05:43:07;-3275.30;93.50
43808;DHT22;29438;50.664;10.098;2024-01-27T05:45:33;-3275.10;93.60
43808;DHT22;29438;50.664;10.098;2024-01-27T05:47:58;-3275.00;93.50
43808;DHT22;29438;50.664;10.098;2024-01-27T05:50:24;-3275.00;93.70
43808;DHT22;29438;50.664;10.098;2024-01-27T05:52:49;-3275.00;93.70
43808;DHT22;29438;50.664;10.098;2024-01-27T05:55:15;-3275.00;93.70
43808;DHT22;29438;50.664;10.098;2024-01-27T05:57:42;-3275.10;93.80
43808;DHT22;29438;50.664;10.098;2024-01-27T06:00:07;-3275.00;94.00
43808;DHT22;29438;50.664;10.098;2024-01-27T06:02:35;-3275.00;93.90
43808;DHT22;29438;50.664;10.098;2024-01-27T06:05:01;-3275.00;94.00
43808;DHT22;29438;50.664;10.098;2024-01-27T06:07:27;-3275.00;94.10
43808;DHT22;29438;50.664;10.098;2024-01-27T06:09:52;-3275.00;94.10
43808;DHT22;29438;50.664;10.098;2024-01-27T06:12:18;-3274.90;94.10
43808;DHT22;29438;50.664;10.098;2024-01-27T06:14:44;-3275.00;94.10
43808;DHT22;29438;50.664;10.098;2024-01-27T06:17:09;-3274.90;94.20
43808;DHT22;29438;50.664;10.098;2024-01-27T06:19:35;-3274.90;94.30
43808;DHT22;29438;50.664;10.098;2024-01-27T06:22:00;-3274.90;94.40
43808;DHT22;29438;50.664;10.098;2024-01-27T06:24:26;-3274.90;94.40
43808;DHT22;29438;50.664;10.098;2024-01-27T06:26:51;-3275.10;94.60
43808;DHT22;29438;50.664;10.098;2024-01-27T06:29:17;-3275.10;94.60
43808;DHT22;29438;50.664;10.098;2024-01-27T06:31:44;-3275.30;94.70
43808;DHT22;29438;50.664;10.098;2024-01-27T06:34:09;-3275.60;94.80
43808;DHT22;29438;50.664;10.098;2024-01-27T06:36:35;-3275.60;94.70
43808;DHT22;29438;50.664;10.098;2024-01-27T06:39:00;-3275.50;94.60
43808;DHT22;29438;50.664;10.098;2024-01-27T06:41:26;-3275.50;94.60
43808;DHT22;29438;50.664;10.098;2024-01-27T06:43:51;-3275.50;94.70
43808;DHT22;29438;50.664;10.098;2024-01-27T06:46:17;-3275.60;94.80
43808;DHT22;29438;50.664;10.098;2024-01-27T06:48:42;-3275.50;94.70
43808;DHT22;29438;50.664;10.098;2024-01-27T06:51:08;-3275.40;94.70
43808;DHT22;29438;50.664;10.098;2024-01-27T06:53:34;-3275.40;94.70
43808;DHT22;29438;50.664;10.098;2024-01-27T06:55:59;-3275.30;94.70
43808;DHT22;29438;50.664;10.098;2024-01-27T06:58:25;-3275.20;94.70
43808;DHT22;29438;50.664;10.098;2024-01-27T07:00:50;-3275.10;94.60
43808;DHT22;29438;50.664;10.098;2024-01-27T07:03:16;-3275.30;94.80
43808;DHT22;29438;50.664;10.098;2024-01-27T07:05:41;-3275.40;94.90
43808;DHT22;29438;50.664;10.098;2024-01-27T07:08:07;-3275.40;94.80
43808;DHT22;29438;50.664;10.098;2024-01-27T07:10:34;-3275.30;94.80
43808;DHT22;29438;50.664;10.098;2024-01-27T07:12:59;-3275.30;94.80
43808;DHT22;29438;50.664;10.098;2024-01-27T07:15:25;-3275.30;94.80
43808;DHT22;29438;50.664;10.098;2024-01-27T07:17:52;-3275.30;94.80
43808;DHT22;29438;50.664;10.098;2024-01-27T07:20:17;-3275.30;94.90
43808;DHT22;29438;50.664;10.098;2024-01-27T07:22:43;-3275.40;94.90
43808;DHT22;29438;50.664;10.098;2024-01-27T07:25:08;-3275.40;95.00
43808;DHT22;29438;50.664;10.098;2024-01-27T07:27:35;-3275.50;95.00
43808;DHT22;29438;50.664;10.098;2024-01-27T07:30:02;-3275.80;95.40
43808;DHT22;29438;50.664;10.098;2024-01-27T07:32:27;-3276.30;95.60
43808;DHT22;29438;50.664;10.098;2024-01-27T07:34:53;-3276.60;95.60
43808;DHT22;29438;50.664;10.098;2024-01-27T07:37:18;0.20;95.90
43808;DHT22;29438;50.664;10.098;2024-01-27T07:39:46;0.80;96.10
43808;DHT22;29438;50.664;10.098;2024-01-27T07:42:14;1.40;96.30
43808;DHT22;29438;50.664;10.098;2024-01-27T07:44:41;2.10;96.30
43808;DHT22;29438;50.664;10.098;2024-01-27T07:47:07;2.70;96.30
43808;DHT22;29438;50.664;10.098;2024-01-27T07:49:34;3.00;95.40
43808;DHT22;29438;50.664;10.098;2024-01-27T07:51:59;3.40;92.80
43808;DHT22;29438;50.664;10.098;2024-01-27T07:54:25;3.40;87.50
43808;DHT22;29438;50.664;10.098;2024-01-27T07:56:50;3.70;86.80
43808;DHT22;29438;50.664;10.098;2024-01-27T07:59:16;4.20;85.30
43808;DHT22;29438;50.664;10.098;2024-01-27T08:01:41;4.80;83.30
43808;DHT22;29438;50.664;10.098;2024-01-27T08:04:07;5.30;81.00
43808;DHT22;29438;50.664;10.098;2024-01-27T08:06:33;5.40;78.00
43808;DHT22;29438;50.664;10.098;2024-01-27T08:08:59;5.60;76.90
43808;DHT22;29438;50.664;10.098;2024-01-27T08:11:25;5.70;75.10
43808;DHT22;29438;50.664;10.098;2024-01-27T08:13:50;5.90;75.70
43808;DHT22;29438;50.664;10.098;2024-01-27T08:16:17;6.20;74.60
43808;DHT22;29438;50.664;10.098;2024-01-27T08:18:42;6.60;73.60
43808;DHT22;29438;50.664;10.098;2024-01-27T08:21:10;6.70;72.30
43808;DHT22;29438;50.664;10.098;2024-01-27T08:23:37;6.60;72.30
43808;DHT22;29438;50.664;10.098;2024-01-27T08:26:02;6.00;73.10
43808;DHT22;29438;50.664;10.098;2024-01-27T08:28:28;5.50;74.50
43808;DHT22;29438;50.664;10.098;2024-01-27T08:30:54;4.90;76.80
43808;DHT22;29438;50.664;10.098;2024-01-27T08:33:19;4.80;77.00
43808;DHT22;29438;50.664;10.098;2024-01-27T08:35:48;5.10;78.10
43808;DHT22;29438;50.664;10.098;2024-01-27T08:38:14;5.50;76.00
43808;DHT22;29438;50.664;10.098;2024-01-27T08:40:39;5.70;75.80
43808;DHT22;29438;50.664;10.098;2024-01-27T08:43:05;5.80;74.30
43808;DHT22;29438;50.664;10.098;2024-01-27T08:45:31;6.00;73.90
43808;DHT22;29438;50.664;10.098;2024-01-27T08:47:57;5.60;75.40
43808;DHT22;29438;50.664;10.098;2024-01-27T08:50:22;5.80;75.80
43808;DHT22;29438;50.664;10.098;2024-01-27T08:52:48;5.60;76.00
43808;DHT22;29438;50.664;10.098;2024-01-27T08:55:13;5.40;76.60
43808;DHT22;29438;50.664;10.098;2024-01-27T08:57:39;5.40;76.40
43808;DHT22;29438;50.664;10.098;2024-01-27T09:00:05;5.80;76.20
43808;DHT22;29438;50.664;10.098;2024-01-27T09:02:31;6.20;74.90
43808;DHT22;29438;50.664;10.098;2024-01-27T09:04:56;6.20;73.80
43808;DHT22;29438;50.664;10.098;2024-01-27T09:07:24;5.80;75.00
43808;DHT22;29438;50.664;10.098;2024-01-27T09:09:49;5.40;76.40
43808;DHT22;29438;50.664;10.098;2024-01-27T09:12:15;5.40;76.80
43808;DHT22;29438;50.664;10.098;2024-01-27T09:14:40;5.30;76.90
43808;DHT22;29438;50.664;10.098;2024-01-27T09:17:06;5.40;77.20
43808;DHT22;29438;50.664;10.098;2024-01-27T09:19:31;5.40;76.70
43808;DHT22;29438;50.664;10.098;2024-01-27T09:21:57;5.20;77.20
43808;DHT22;29438;50.664;10.098;2024-01-27T09:24:22;5.30;78.10
43808;DHT22;29438;50.664;10.098;2024-01-27T09:26:48;5.40;76.80
43808;DHT22;29438;50.664;10.098;2024-01-27T09:29:13;5.00;78.40
43808;DHT22;29438;50.664;10.098;2024-01-27T09:31:39;5.30;78.70
43808;DHT22;29438;50.664;10.098;2024-01-27T09:34:04;5.40;76.50
43808;DHT22;29438;50.664;10.098;2024-01-27T09:36:30;5.70;77.00
43808;DHT22;29438;50.664;10.098;2024-01-27T09:38:55;5.50;76.40
43808;DHT22;29438;50.664;10.098;2024-01-27T09:41:21;5.70;76.80
43808;DHT22;29438;50.664;10.098;2024-01-27T09:43:47;5.80;76.40
43808;DHT22;29438;50.664;10.098;2024-01-27T09:46:14;5.50;76.80
43808;DHT22;29438;50.664;10.098;2024-01-27T09:48:40;5.40;77.60
43808;DHT22;29438;50.664;10.098;2024-01-27T09:51:07;5.70;76.10
43808;DHT22;29438;50.664;10.098;2024-01-27T09:53:33;5.70;75.80
43808;DHT22;29438;50.664;10.098;2024-01-27T09:55:59;5.50;76.40
43808;DHT22;29438;50.664;10.098;2024-01-27T09:58:29;5.80;76.50
43808;DHT22;29438;50.664;10.098;2024-01-27T10:00:56;6.30;77.20
43808;DHT22;29438;50.664;10.098;2024-01-27T10:03:24;6.60;75.40
43808;DHT22;29438;50.664;10.098;2024-01-27T10:05:52;6.80;73.20
43808;DHT22;29438;50.664;10.098;2024-01-27T10:08:18;7.30;71.70
43808;DHT22;29438;50.664;10.098;2024-01-27T10:10:43;7.00;73.30
43808;DHT22;29438;50.664;10.098;2024-01-27T10:13:10;7.20;72.50
43808;DHT22;29438;50.664;10.098;2024-01-27T10:15:37;7.20;72.10
43808;DHT22;29438;50.664;10.098;2024-01-27T10:18:07;7.50;71.40
43808;DHT22;29438;50.664;10.098;2024-01-27T10:20:33;7.30;70.20
43808;DHT22;29438;50.664;10.098;2024-01-27T10:23:09;7.00;71.80
43808;DHT22;29438;50.664;10.098;2024-01-27T10:25:39;7.10;72.40
43808;DHT22;29438;50.664;10.098;2024-01-27T10:28:07;7.10;71.70
43808;DHT22;29438;50.664;10.098;2024-01-27T10:30:34;7.40;72.10
43808;DHT22;29438;50.664;10.098;2024-01-27T10:32:59;7.10;72.70
43808;DHT22;29438;50.664;10.098;2024-01-27T10:35:25;7.30;72.10
43808;DHT22;29438;50.664;10.098;2024-01-27T10:37:54;7.60;70.60
43808;DHT22;29438;50.664;10.098;2024-01-27T10:40:21;8.00;69.90
43808;DHT22;29438;50.664;10.098;2024-01-27T10:42:51;7.70;69.50
43808;DHT22;29438;50.664;10.098;2024-01-27T10:45:25;7.40;69.50
43808;DHT22;29438;50.664;10.098;2024-01-27T10:47:51;7.30;71.10
43808;DHT22;29438;50.664;10.098;2024-01-27T10:50:18;7.30;70.90
43808;DHT22;29438;50.664;10.098;2024-01-27T10:52:44;7.60;70.00
43808;DHT22;29438;50.664;10.098;2024-01-27T10:55:12;7.30;71.10
43808;DHT22;29438;50.664;10.098;2024-01-27T10:57:38;7.20;70.80
43808;DHT22;29438;50.664;10.098;2024-01-27T11:00:06;7.00;71.60
43808;DHT22;29438;50.664;10.098;2024-01-27T11:02:34;6.90;72.10
43808;DHT22;29438;50.664;10.098;2024-01-27T11:05:02;6.90;71.70
43808;DHT22;29438;50.664;10.098;2024-01-27T11:07:31;6.30;73.10
43808;DHT22;29438;50.664;10.098;2024-01-27T11:09:57;6.50;73.40
43808;DHT22;29438;50.664;10.098;2024-01-27T11:12:23;6.60;72.40
43808;DHT22;29438;50.664;10.098;2024-01-27T11:14:49;7.00;73.70
43808;DHT22;29438;50.664;10.098;2024-01-27T11:17:17;6.80;72.50
43808;DHT22;29438;50.664;10.098;2024-01-27T11:19:44;6.90;72.60
43808;DHT22;29438;50.664;10.098;2024-01-27T11:22:26;7.20;71.70
43808;DHT22;29438;50.664;10.098;2024-01-27T11:25:07;7.20;72.70
43808;DHT22;29438;50.664;10.098;2024-01-27T11:27:32;7.20;71.90
43808;DHT22;29438;50.664;10.098;2024-01-27T11:29:58;7.00;71.60
43808;DHT22;29438;50.664;10.098;2024-01-27T11:32:23;6.70;70.60
43808;DHT22;29438;50.664;10.098;2024-01-27T11:34:51;7.00;72.00
43808;DHT22;29438;50.664;10.098;2024-01-27T11:37:17;7.20;71.70
43808;DHT22;29438;50.664;10.098;2024-01-27T11:39:45;7.00;72.20
43808;DHT22;29438;50.664;10.098;2024-01-27T11:42:12;6.80;71.00
43808;DHT22;29438;50.664;10.098;2024-01-27T11:44:39;6.70;72.80
43808;DHT22;29438;50.664;10.098;2024-01-27T11:47:07;6.90;70.90
43808;DHT22;29438;50.664;10.098;2024-01-27T11:49:39;6.80;70.50
43808;DHT22;29438;50.664;10.098;2024-01-27T11:52:06;7.10;70.70
43808;DHT22;29438;50.664;10.098;2024-01-27T11:54:32;7.10;70.80
43808;DHT22;29438;50.664;10.098;2024-01-27T11:56:57;7.20;69.90
43808;DHT22;29438;50.664;10.098;2024-01-27T11:59:23;7.20;69.70
43808;DHT22;29438;50.664;10.098;2024-01-27T12:01:49;7.20;70.00
43808;DHT22;29438;50.664;10.098;2024-01-27T12:04:15;7.20;69.20
43808;DHT22;29438;50.664;10.098;2024-01-27T12:06:42;7.20;70.70
43808;DHT22;29438;50.664;10.098;2024-01-27T12:09:09;7.20;69.20
43808;DHT22;29438;50.664;10.098;2024-01-27T12:11:38;7.00;69.60
43808;DHT22;29438;50.664;10.098;2024-01-27T12:14:05;6.70;70.10
43808;DHT22;29438;50.664;10.098;2024-01-27T12:16:31;6.70;69.80
43808;DHT22;29438;50.664;10.098;2024-01-27T12:18:57;6.30;71.00
43808;DHT22;29438;50.664;10.098;2024-01-27T12:21:22;6.30;72.30
43808;DHT22;29438;50.664;10.098;2024-01-27T12:23:53;6.50;71.50
43808;DHT22;29438;50.664;10.098;2024-01-27T12:26:24;6.50;72.00
43808;DHT22;29438;50.664;10.098;2024-01-27T12:28:50;6.50;71.40
43808;DHT22;29438;50.664;10.098;2024-01-27T12:31:16;6.40;72.40
43808;DHT22;29438;50.664;10.098;2024-01-27T12:33:50;6.40;72.10
43808;DHT22;29438;50.664;10.098;2024-01-27T12:36:18;6.60;72.80
43808;DHT22;29438;50.664;10.098;2024-01-27T12:39:07;6.60;71.90
43808;DHT22;29438;50.664;10.098;2024-01-27T12:41:32;6.50;71.30
43808;DHT22;29438;50.664;10.098;2024-01-27T12:44:01;6.60;70.80
43808;DHT22;29438;50.664;10.098;2024-01-27T12:46:27;6.70;70.60
43808;DHT22;29438;50.664;10.098;2024-01-27T12:48:53;6.60;71.00
43808;DHT22;29438;50.664;10.098;2024-01-27T12:51:19;6.70;71.00
43808;DHT22;29438;50.664;10.098;2024-01-27T12:53:44;6.70;71.10
43808;DHT22;29438;50.664;10.098;2024-01-27T12:56:11;6.70;70.40
43808;DHT22;29438;50.664;10.098;2024-01-27T12:58:37;6.40;70.30
43808;DHT22;29438;50.664;10.098;2024-01-27T13:01:03;6.40;70.90
43808;DHT22;29438;50.664;10.098;2024-01-27T13:03:29;6.20;70.50
43808;DHT22;29438;50.664;10.098;2024-01-27T13:05:56;6.10;71.40
43808;DHT22;29438;50.664;10.098;2024-01-27T13:08:22;6.00;71.70
43808;DHT22;29438;50.664;10.098;2024-01-27T13:10:48;6.10;71.50
43808;DHT22;29438;50.664;10.098;2024-01-27T13:13:13;6.10;71.70
43808;DHT22;29438;50.664;10.098;2024-01-27T13:15:39;6.10;71.50
43808;DHT22;29438;50.664;10.098;2024-01-27T13:18:05;6.00;71.50
43808;DHT22;29438;50.664;10.098;2024-01-27T13:20:31;5.90;71.50
43808;DHT22;29438;50.664;10.098;2024-01-27T13:22:56;5.90;71.60
43808;DHT22;29438;50.664;10.098;2024-01-27T13:25:22;5.90;72.80
43808;DHT22;29438;50.664;10.098;2024-01-27T13:27:48;5.70;73.80
43808;DHT22;29438;50.664;10.098;2024-01-27T13:30:13;5.80;74.20
43808;DHT22;29438;50.664;10.098;2024-01-27T13:32:39;5.80;73.90
43808;DHT22;29438;50.664;10.098;2024-01-27T13:35:06;5.80;73.30
43808;DHT22;29438;50.664;10.098;2024-01-27T13:37:33;5.80;72.90
43808;DHT22;29438;50.664;10.098;2024-01-27T13:39:59;5.90;72.90
43808;DHT22;29438;50.664;10.098;2024-01-27T13:42:25;5.80;72.90
43808;DHT22;29438;50.664;10.098;2024-01-27T13:44:51;5.80;73.20
43808;DHT22;29438;50.664;10.098;2024-01-27T13:47:16;6.00;73.60
43808;DHT22;29438;50.664;10.098;2024-01-27T13:49:43;6.00;72.90
43808;DHT22;29438;50.664;10.098;2024-01-27T13:52:08;6.10;73.50
43808;DHT22;29438;50.664;10.098;2024-01-27T13:54:34;6.20;73.40
43808;DHT22;29438;50.664;10.098;2024-01-27T13:57:00;6.00;73.10
43808;DHT22;29438;50.664;10.098;2024-01-27T13:59:26;6.00;73.70
43808;DHT22;29438;50.664;10.098;2024-01-27T14:01:52;5.80;72.50
43808;DHT22;29438;50.664;10.098;2024-01-27T14:04:18;5.80;72.80
43808;DHT22;29438;50.664;10.098;2024-01-27T14:06:44;5.80;72.80
43808;DHT22;29438;50.664;10.098;2024-01-27T14:09:10;5.80;73.20
43808;DHT22;29438;50.664;10.098;2024-01-27T14:11:35;5.80;73.30
43808;DHT22;29438;50.664;10.098;2024-01-27T14:14:01;5.90;73.60
43808;DHT22;29438;50.664;10.098;2024-01-27T14:16:26;5.90;73.30
43808;DHT22;29438;50.664;10.098;2024-01-27T14:18:53;6.00;73.00
43808;DHT22;29438;50.664;10.098;2024-01-27T14:21:19;6.00;73.00
43808;DHT22;29438;50.664;10.098;2024-01-27T14:23:45;6.00;72.70
43808;DHT22;29438;50.664;10.098;2024-01-27T14:26:10;6.10;73.10
43808;DHT22;29438;50.664;10.098;2024-01-27T14:28:41;6.10;72.80
43808;DHT22;29438;50.664;10.098;2024-01-27T14:31:06;6.00;71.90
43808;DHT22;29438;50.664;10.098;2024-01-27T14:33:33;6.00;72.00
43808;DHT22;29438;50.664;10.098;2024-01-27T14:35:58;5.80;71.70
43808;DHT22;29438;50.664;10.098;2024-01-27T14:38:24;5.70;72.60
43808;DHT22;29438;50.664;10.098;2024-01-27T14:40:49;5.70;72.50
43808;DHT22;29438;50.664;10.098;2024-01-27T14:43:15;5.80;72.80
43808;DHT22;29438;50.664;10.098;2024-01-27T14:45:44;5.60;73.40
43808;DHT22;29438;50.664;10.098;2024-01-27T14:48:10;5.60;73.70
43808;DHT22;29438;50.664;10.098;2024-01-27T14:50:35;5.50;74.00
43808;DHT22;29438;50.664;10.098;2024-01-27T14:53:01;5.40;74.50
43808;DHT22;29438;50.664;10.098;2024-01-27T14:55:33;5.30;74.80
43808;DHT22;29438;50.664;10.098;2024-01-27T14:57:59;5.10;74.30
43808;DHT22;29438;50.664;10.098;2024-01-27T15:00:24;4.80;74.90
43808;DHT22;29438;50.664;10.098;2024-01-27T15:02:51;4.50;76.30
43808;DHT22;29438;50.664;10.098;2024-01-27T15:05:17;4.10;77.10
43808;DHT22;29438;50.664;10.098;2024-01-27T15:07:44;3.90;78.10
43808;DHT22;29438;50.664;10.098;2024-01-27T15:10:10;3.70;78.80